Terminal Aerodrome Forecast
Issued by NWS

Home | Current Version | Previous Version | Text Only | Print | Product List | Glossary On
Versions: 1 2 3 4 5 6 7 8 9 10 11 12 13 14 15 16 17 18 19 20 21 22 23 24 25
000
FTUS43 KDVN 251700
TAFCID
TAF
KCID 251724Z 2518/2618 29009KT P6SM SKC
     FM260000 15007KT P6SM SCT060
     FM260900 13012KT P6SM BKN040
     FM261400 10012G18KT 4SM -SHSN SCT020 OVC030=

USA.gov is the U.S. government's official web portal to all federal, state and local government web resources and services.